Time;durP1;ratioP1;P1;durP2;ratioP2;P2;SDS_P1;SDS_P2;PMS_P1;PMS_P2;Temp;Humidity;BMP_temperature;BMP_pressure;BME280_temperature;BME280_humidity;BME280_pressure;Samples;Min_cycle;Max_cycle;Signal;HPM_P1;HPM_P2
2023/03/23 00:01:31;;;;;;;6.97;4.43;;;;;;;12.25;79.73;97547.13;5012251;28;20048;-88
2023/03/23 00:04:12;;;;;;;8.10;4.80;;;;;;;12.09;80.10;97521.47;5013696;28;20029;-88
2023/03/23 00:06:39;;;;;;;6.70;4.72;;;;;;;12.08;79.53;97538.28;5018028;28;20391;-89
2023/03/23 00:09:05;;;;;;;6.25;4.30;;;;;;;12.00;80.19;97516.53;5012940;28;20103;-88
2023/03/23 00:11:32;;;;;;;6.63;3.97;;;;;;;12.14;79.68;97540.81;5012771;28;20112;-88
2023/03/23 00:14:01;;;;;;;6.57;4.50;;;;;;;12.10;81.05;97534.38;5030216;28;20033;-88
2023/03/23 00:16:31;;;;;;;7.88;4.65;;;;;;;12.03;81.22;97542.34;5013015;28;20037;-88
2023/03/23 00:19:05;;;;;;;5.85;4.43;;;;;;;11.91;82.96;97512.59;5029054;28;20132;-88
2023/03/23 00:21:38;;;;;;;6.70;4.50;;;;;;;11.89;81.71;97522.53;5013406;28;20436;-88
2023/03/23 00:24:06;;;;;;;9.35;4.80;;;;;;;11.96;81.50;97511.94;5012763;28;20654;-88
2023/03/23 00:26:34;;;;;;;6.80;4.68;;;;;;;11.85;81.34;97521.38;4989235;28;20065;-89
2023/03/23 00:29:05;;;;;;;4.47;3.85;;;;;;;11.70;78.39;97481.53;5003352;28;20110;-90
2023/03/23 00:31:32;;;;;;;8.32;4.30;;;;;;;11.74;80.64;97472.97;5006982;28;20083;-88
2023/03/23 00:34:04;;;;;;;6.78;4.20;;;;;;;11.73;80.13;97502.09;5012902;28;20052;-88
2023/03/23 00:36:34;;;;;;;6.80;4.18;;;;;;;11.89;80.80;97519.09;5012312;28;20512;-89
2023/03/23 00:39:03;;;;;;;5.28;4.20;;;;;;;11.90;80.48;97505.75;5028930;28;20420;-90
2023/03/23 00:41:32;;;;;;;6.32;3.83;;;;;;;11.90;79.94;97515.44;5028438;28;20038;-90
2023/03/23 00:44:02;;;;;;;4.90;4.10;;;;;;;12.01;77.93;97520.75;5013685;28;20108;-89
2023/03/23 00:46:28;;;;;;;6.45;4.25;;;;;;;12.04;79.43;97511.63;5029038;28;20788;-88
2023/03/23 00:49:01;;;;;;;7.72;4.43;;;;;;;12.01;78.72;97509.44;5013263;28;20042;-88
2023/03/23 00:51:26;;;;;;;6.78;4.40;;;;;;;12.00;79.24;97484.19;5011910;28;20100;-88
2023/03/23 00:53:52;;;;;;;5.88;4.10;;;;;;;12.20;79.68;97507.56;5028864;28;20113;-89
2023/03/23 00:56:18;;;;;;;6.32;4.57;;;;;;;12.12;79.62;97506.06;4995429;28;20033;-88
2023/03/23 00:58:43;;;;;;;6.32;4.68;;;;;;;12.16;78.72;97522.19;5009657;28;20026;-88
2023/03/23 01:01:09;;;;;;;5.68;4.80;;;;;;;12.14;79.67;97503.22;5013078;28;20440;-89
2023/03/23 01:03:36;;;;;;;7.15;5.30;;;;;;;12.19;80.35;97505.97;5013161;28;20040;-89
2023/03/23 01:06:13;;;;;;;6.28;5.05;;;;;;;12.17;80.68;97513.25;5000194;28;20029;-89
2023/03/23 01:08:45;;;;;;;6.68;4.60;;;;;;;12.22;80.43;97542.31;5008243;28;20030;-89
2023/03/23 01:11:16;;;;;;;5.93;4.70;;;;;;;12.29;80.98;97528.06;5023808;28;20401;-88
2023/03/23 01:13:42;;;;;;;5.47;4.70;;;;;;;12.20;80.59;97508.38;5008068;28;20034;-89
2023/03/23 01:16:10;;;;;;;7.78;5.10;;;;;;;12.27;80.59;97524.03;5003332;28;20030;-89
2023/03/23 01:18:37;;;;;;;7.63;5.32;;;;;;;12.33;81.54;97529.22;5013394;28;20105;-88
2023/03/23 01:21:10;;;;;;;8.52;5.13;;;;;;;12.33;80.53;97512.63;5026866;28;20038;-88
2023/03/23 01:23:37;;;;;;;6.78;4.80;;;;;;;12.21;80.91;97493.41;5028763;28;20104;-90
2023/03/23 01:26:12;;;;;;;5.55;4.97;;;;;;;12.12;80.08;97492.13;5012903;28;20022;-88
2023/03/23 01:28:38;;;;;;;7.50;4.78;;;;;;;12.29;79.95;97500.94;5013976;28;20040;-90
2023/03/23 01:31:07;;;;;;;6.47;4.63;;;;;;;12.17;79.44;97481.72;5013778;28;20037;-88
2023/03/23 01:33:34;;;;;;;6.22;4.45;;;;;;;12.21;78.79;97482.88;5013226;28;20113;-89
2023/03/23 01:36:12;;;;;;;5.93;4.68;;;;;;;12.19;79.00;97477.06;5012957;28;20049;-88
2023/03/23 01:38:38;;;;;;;5.65;4.53;;;;;;;12.32;78.24;97492.63;5009118;28;20101;-89
2023/03/23 01:41:04;;;;;;;5.10;4.57;;;;;;;12.43;78.46;97491.84;5012238;28;20030;-89
2023/03/23 01:43:30;;;;;;;5.32;4.45;;;;;;;12.26;78.35;97467.22;5011859;28;20084;-89
2023/03/23 01:45:56;;;;;;;6.60;4.30;;;;;;;12.36;77.68;97474.59;5008466;28;20026;-89
2023/03/23 01:48:28;;;;;;;5.82;4.55;;;;;;;12.38;77.37;97510.13;4997823;28;20036;-89
2023/03/23 01:51:09;;;;;;;7.78;4.88;;;;;;;12.38;77.25;97494.34;5011670;28;20029;-89
2023/03/23 01:53:44;;;;;;;5.43;4.18;;;;;;;12.30;77.66;97478.91;5010988;28;20507;-88
2023/03/23 01:56:13;;;;;;;5.60;4.57;;;;;;;12.23;77.39;97470.28;5027119;28;20089;-89
2023/03/23 01:58:42;;;;;;;6.22;4.28;;;;;;;12.32;76.92;97479.47;5024101;28;20030;-88
2023/03/23 02:01:26;;;;;;;6.22;4.13;;;;;;;12.39;77.12;97485.44;5025847;28;20062;-89
2023/03/23 02:03:56;;;;;;;4.22;3.60;;;;;;;12.34;76.63;97472.16;5007535;28;20030;-89
2023/03/23 02:06:24;;;;;;;6.03;4.32;;;;;;;12.42;77.47;97476.31;5037976;28;20025;-90
2023/03/23 02:08:52;;;;;;;8.88;4.45;;;;;;;12.49;78.01;97482.25;5035991;28;20034;-89
2023/03/23 02:11:21;;;;;;;5.05;4.00;;;;;;;12.53;78.16;97475.50;5011471;28;20374;-90
2023/03/23 02:13:50;;;;;;;8.10;4.20;;;;;;;12.43;78.59;97465.56;5012045;28;20489;-89
2023/03/23 02:17:00;;;;;;;6.28;4.55;;;;;;;12.55;79.18;97466.38;5011244;28;20095;-88
2023/03/23 02:20:23;;;;;;;6.50;4.63;;;;;;;12.49;78.79;97462.03;5012330;28;20064;-89
2023/03/23 02:23:31;;;;;;;6.28;4.00;;;;;;;12.29;79.30;97443.09;4994615;28;20023;-88
2023/03/23 02:26:25;;;;;;;5.65;4.07;;;;;;;12.36;79.00;97454.34;5011704;28;20030;-87
2023/03/23 02:29:18;;;;;;;5.03;4.10;;;;;;;12.29;79.57;97454.44;5012483;28;20037;-89
2023/03/23 02:31:57;;;;;;;5.28;3.88;;;;;;;12.23;79.47;97444.00;5011253;28;20511;-88
2023/03/23 02:34:31;;;;;;;5.32;4.38;;;;;;;12.33;79.57;97441.63;5011396;28;20034;-89
2023/03/23 02:37:13;;;;;;;4.50;3.30;;;;;;;12.21;78.93;97430.28;5027349;28;20095;-89
2023/03/23 02:40:23;;;;;;;4.65;3.72;;;;;;;12.33;79.12;97439.00;4991728;28;20042;-89
2023/03/23 02:42:54;;;;;;;4.55;3.65;;;;;;;12.19;78.22;97433.16;5008534;28;20057;-89
2023/03/23 02:45:23;;;;;;;6.43;3.63;;;;;;;12.29;79.65;97422.06;4996503;28;20069;-89
2023/03/23 02:47:53;;;;;;;4.35;3.80;;;;;;;12.11;79.35;97406.38;5010424;28;20046;-88
2023/03/23 02:50:27;;;;;;;5.20;3.80;;;;;;;12.24;79.25;97429.84;5014799;28;20555;-90
2023/03/23 02:52:58;;;;;;;4.47;3.63;;;;;;;12.34;79.27;97440.59;5014279;28;20065;-88
2023/03/23 02:55:28;;;;;;;4.60;3.92;;;;;;;12.20;79.39;97444.47;5016179;28;20496;-89
2023/03/23 02:57:54;;;;;;;4.60;3.67;;;;;;;12.25;79.23;97444.59;5011885;28;20045;-89
2023/03/23 03:00:31;;;;;;;5.10;3.60;;;;;;;12.06;79.74;97412.34;5015295;28;20108;-88
2023/03/23 03:02:57;;;;;;;5.55;3.70;;;;;;;12.18;79.33;97428.13;5014689;28;20156;-89
2023/03/23 03:05:44;;;;;;;5.22;3.55;;;;;;;12.28;79.41;97436.25;5029753;28;20029;-89
2023/03/23 03:08:23;;;;;;;5.03;3.20;;;;;;;12.30;79.27;97434.22;5012876;28;20038;-89
2023/03/23 03:11:11;;;;;;;4.60;3.00;;;;;;;12.18;78.15;97430.75;5007337;28;20038;-89
2023/03/23 03:14:18;;;;;;;4.68;3.42;;;;;;;12.32;77.65;97437.41;5029818;28;20026;-89
2023/03/23 03:17:02;;;;;;;3.80;3.30;;;;;;;12.24;77.37;97424.59;5013263;28;20428;-87
2023/03/23 03:19:41;;;;;;;4.57;3.13;;;;;;;12.19;76.65;97421.84;5013190;28;20034;-89
2023/03/23 03:22:10;;;;;;;3.60;3.00;;;;;;;12.29;77.68;97422.06;5012668;28;20041;-88
2023/03/23 03:24:38;;;;;;;4.38;2.95;;;;;;;12.16;76.03;97388.09;5007932;28;20033;-87
2023/03/23 03:27:11;;;;;;;3.83;2.80;;;;;;;12.36;76.28;97412.28;5029300;28;20026;-88
2023/03/23 03:29:43;;;;;;;4.25;3.00;;;;;;;12.28;75.93;97388.91;4996491;28;20025;-88
2023/03/23 03:32:18;;;;;;;3.92;2.90;;;;;;;12.39;74.77;97401.28;5013264;28;20080;-89
2023/03/23 03:34:47;;;;;;;4.40;3.05;;;;;;;12.38;75.34;97394.44;5012121;28;20049;-88
2023/03/23 03:37:15;;;;;;;3.50;2.60;;;;;;;12.42;74.25;97406.09;5012425;28;20046;-88
2023/03/23 03:39:41;;;;;;;3.00;2.50;;;;;;;12.54;74.69;97414.00;5013994;28;20038;-87
2023/03/23 03:42:07;;;;;;;3.40;2.42;;;;;;;12.58;74.27;97404.59;5028868;28;20048;-87
2023/03/23 03:44:34;;;;;;;3.83;2.60;;;;;;;12.58;73.83;97415.13;5007036;28;20038;-88
2023/03/23 03:46:59;;;;;;;3.17;2.58;;;;;;;12.44;74.52;97398.78;5012529;28;20191;-88
2023/03/23 03:49:28;;;;;;;3.00;2.70;;;;;;;12.44;73.89;97398.78;5012875;28;20061;-88
2023/03/23 03:51:54;;;;;;;2.75;2.38;;;;;;;12.54;73.87;97409.53;5013106;28;20041;-89
2023/03/23 03:54:21;;;;;;;3.47;2.60;;;;;;;12.53;74.45;97392.16;5013099;28;20409;-89
2023/03/23 03:56:47;;;;;;;2.95;2.67;;;;;;;12.61;74.78;97419.13;5013943;28;20030;-90
2023/03/23 03:59:15;;;;;;;3.63;2.40;;;;;;;12.49;74.20;97387.56;5010067;28;20037;-88
2023/03/23 04:01:41;;;;;;;5.47;3.42;;;;;;;12.45;74.02;97389.84;5014372;28;20030;-89
2023/03/23 04:04:07;;;;;;;2.92;2.13;;;;;;;12.57;74.23;97403.81;5029716;28;20044;-88
2023/03/23 04:06:37;;;;;;;4.00;2.70;;;;;;;12.45;73.09;97379.31;5032327;28;20064;-88
2023/03/23 04:09:08;;;;;;;2.70;2.43;;;;;;;12.59;73.65;97414.91;5030041;28;20030;-89
2023/03/23 04:11:34;;;;;;;2.72;2.40;;;;;;;12.56;74.12;97407.47;5010293;28;20030;-89
2023/03/23 04:14:04;;;;;;;2.78;2.40;;;;;;;12.53;73.84;97402.69;5013046;28;20042;-89
2023/03/23 04:16:30;;;;;;;4.32;2.70;;;;;;;12.48;74.15;97396.50;5014454;28;20026;-88
2023/03/23 04:18:56;;;;;;;2.90;2.38;;;;;;;12.66;74.52;97414.00;5012630;28;20549;-87
2023/03/23 04:21:28;;;;;;;2.85;2.53;;;;;;;12.53;73.92;97410.56;5012468;28;20366;-88
2023/03/23 04:24:00;;;;;;;2.53;2.33;;;;;;;12.47;74.36;97406.19;4994860;28;20034;-89
2023/03/23 04:26:28;;;;;;;3.72;2.22;;;;;;;12.57;74.20;97414.31;4994336;28;20030;-88
2023/03/23 04:28:58;;;;;;;2.70;2.30;;;;;;;12.44;74.19;97383.00;5006305;28;20061;-88
2023/03/23 04:31:25;;;;;;;4.65;2.40;;;;;;;12.49;73.73;97396.25;5009337;28;20748;-88
2023/03/23 04:33:54;;;;;;;5.22;2.88;;;;;;;12.50;73.54;97412.84;5007719;28;20077;-89
2023/03/23 04:36:23;;;;;;;3.88;2.67;;;;;;;12.53;73.84;97407.94;5022855;28;20046;-88
2023/03/23 04:38:50;;;;;;;7.60;2.60;;;;;;;12.53;73.66;97410.56;5011993;28;20034;-88
2023/03/23 04:41:18;;;;;;;3.72;2.40;;;;;;;12.32;73.69;97382.19;5013245;28;20030;-88
2023/03/23 04:43:44;;;;;;;4.97;3.00;;;;;;;12.56;73.67;97415.34;5013886;28;20042;-87
2023/03/23 04:46:09;;;;;;;3.78;2.67;;;;;;;12.41;72.76;97393.16;5008350;28;20030;-89
2023/03/23 04:48:38;;;;;;;3.70;2.33;;;;;;;12.55;72.91;97408.50;5013011;28;20038;-88
2023/03/23 04:51:05;;;;;;;3.92;2.70;;;;;;;12.38;72.18;97399.69;5013723;28;20037;-89
2023/03/23 04:53:32;;;;;;;3.33;2.40;;;;;;;12.46;72.90;97401.16;4995966;28;20508;-90
2023/03/23 04:55:58;;;;;;;2.53;2.33;;;;;;;12.46;73.21;97412.47;5013654;28;20373;-91
2023/03/23 04:58:24;;;;;;;3.30;2.30;;;;;;;12.43;73.23;97397.19;4993512;28;20030;-90
2023/03/23 05:00:51;;;;;;;4.70;2.60;;;;;;;12.53;73.46;97410.56;5011817;28;20363;-88
2023/03/23 05:03:18;;;;;;;3.30;2.50;;;;;;;12.36;72.50;97385.97;5011849;28;20045;-89
2023/03/23 05:05:46;;;;;;;3.78;2.38;;;;;;;12.39;72.22;97393.38;4995413;28;20021;-89
2023/03/23 05:08:15;;;;;;;3.50;2.50;;;;;;;12.32;72.50;97387.44;5013862;28;20381;-88
2023/03/23 05:10:41;;;;;;;2.97;2.60;;;;;;;12.34;72.63;97388.00;5012066;28;20088;-88
2023/03/23 05:13:07;;;;;;;5.13;2.50;;;;;;;12.43;72.95;97402.44;5016468;28;20038;-89
2023/03/23 05:15:32;;;;;;;3.63;2.30;;;;;;;12.33;72.42;97389.84;5011852;28;20032;-88
2023/03/23 05:18:00;;;;;;;3.05;2.75;;;;;;;12.34;72.48;97385.38;5001253;28;20102;-89
2023/03/23 05:20:31;;;;;;;4.22;2.50;;;;;;;12.40;72.43;97389.72;5008097;28;20553;-89
2023/03/23 05:22:57;;;;;;;3.47;2.40;;;;;;;12.31;73.39;97378.75;5014897;28;20034;-89
2023/03/23 05:25:26;;;;;;;3.20;2.50;;;;;;;12.31;73.09;97377.97;5012509;28;20360;-89
2023/03/23 05:27:52;;;;;;;3.28;2.42;;;;;;;12.49;73.29;97416.50;5012789;28;20034;-89
2023/03/23 05:30:21;;;;;;;3.10;2.47;;;;;;;12.51;72.92;97404.72;5012875;28;20037;-89
2023/03/23 05:32:53;;;;;;;4.22;2.50;;;;;;;12.45;73.28;97383.78;5011160;28;20034;-88
2023/03/23 05:35:21;;;;;;;3.60;2.20;;;;;;;12.43;72.77;97373.50;5007455;28;20051;-88
2023/03/23 05:37:46;;;;;;;2.55;2.33;;;;;;;12.58;73.20;97389.63;4991745;28;20037;-89
2023/03/23 05:40:13;;;;;;;5.22;2.55;;;;;;;12.54;71.93;97388.50;4993744;28;20046;-89
2023/03/23 05:42:41;;;;;;;2.53;2.33;;;;;;;12.55;72.54;97370.88;4994703;28;20053;-89
2023/03/23 05:45:10;;;;;;;3.88;2.30;;;;;;;12.50;72.45;97374.19;5011491;28;20022;-89
2023/03/23 05:47:38;;;;;;;4.55;2.50;;;;;;;12.50;72.39;97391.81;5011215;28;20042;-90
2023/03/23 05:50:06;;;;;;;3.05;2.25;;;;;;;12.66;72.83;97399.00;5028182;28;20033;-89
2023/03/23 05:52:35;;;;;;;4.47;2.30;;;;;;;12.76;73.16;97398.41;5013098;28;20029;-89
2023/03/23 05:55:03;;;;;;;6.85;2.50;;;;;;;12.64;73.30;97387.91;5011168;28;20041;-89
2023/03/23 05:57:30;;;;;;;3.10;2.33;;;;;;;12.80;72.41;97404.81;5010551;28;20801;-89
2023/03/23 05:59:59;;;;;;;3.47;2.10;;;;;;;12.67;72.85;97397.19;5005626;28;20029;-89
2023/03/23 06:02:29;;;;;;;2.28;2.08;;;;;;;12.77;72.08;97400.00;5010581;28;20034;-88
2023/03/23 06:04:57;;;;;;;3.28;2.58;;;;;;;12.79;71.46;97403.22;5010377;28;20030;-88
2023/03/23 06:07:29;;;;;;;4.35;2.35;;;;;;;12.81;71.30;97380.13;5018456;28;20397;-89
2023/03/23 06:10:07;;;;;;;2.70;2.25;;;;;;;12.81;70.89;97385.38;5011964;28;20030;-89
2023/03/23 06:12:33;;;;;;;2.92;2.58;;;;;;;12.96;70.58;97405.97;5011344;28;20033;-89
2023/03/23 06:15:06;;;;;;;3.45;2.58;;;;;;;12.98;70.89;97391.53;5011342;28;20497;-89
2023/03/23 06:17:36;;;;;;;3.67;2.70;;;;;;;13.04;71.48;97403.75;5012094;28;20060;-89
2023/03/23 06:20:09;;;;;;;4.13;2.95;;;;;;;13.09;70.33;97406.50;5016620;28;20040;-89
2023/03/23 06:22:41;;;;;;;5.57;3.33;;;;;;;13.19;71.08;97399.84;5007659;28;20045;-91
2023/03/23 06:25:11;;;;;;;3.25;2.40;;;;;;;13.12;69.80;97403.41;5014775;28;20028;-90
2023/03/23 06:27:55;;;;;;;4.75;2.60;;;;;;;13.27;70.16;97416.13;5028412;28;20052;-90
2023/03/23 06:30:25;;;;;;;3.42;2.55;;;;;;;13.16;69.00;97397.69;5030293;28;20098;-87
2023/03/23 06:32:51;;;;;;;3.85;2.67;;;;;;;13.35;70.22;97417.56;5030500;28;20454;-89
2023/03/23 06:35:21;;;;;;;3.90;2.30;;;;;;;13.31;70.30;97413.78;5013978;28;20046;-89
2023/03/23 06:37:51;;;;;;;2.70;2.42;;;;;;;13.23;69.93;97412.34;5032043;28;20473;-90
2023/03/23 06:40:24;;;;;;;5.15;2.40;;;;;;;13.25;69.20;97404.19;5030768;28;20026;-89
2023/03/23 06:42:52;;;;;;;3.60;2.58;;;;;;;13.26;70.39;97411.88;5014392;28;20121;-90
2023/03/23 06:45:20;;;;;;;4.07;2.13;;;;;;;13.36;70.93;97433.13;5014399;28;20025;-88
2023/03/23 06:47:48;;;;;;;5.07;2.50;;;;;;;13.41;69.88;97429.00;5014263;28;20029;-88
2023/03/23 06:50:16;;;;;;;3.22;2.30;;;;;;;13.54;70.24;97436.63;5014166;28;20026;-87
2023/03/23 06:52:49;;;;;;;3.80;2.55;;;;;;;13.61;70.98;97440.75;5014148;28;20022;-88
2023/03/23 06:55:16;;;;;;;3.72;2.50;;;;;;;13.56;69.88;97438.03;5030681;28;20565;-88
2023/03/23 06:57:44;;;;;;;4.20;2.50;;;;;;;13.68;73.12;97450.34;5010879;28;20038;-88
2023/03/23 07:00:13;;;;;;;3.55;2.63;;;;;;;13.76;72.70;97452.63;5014650;28;20042;-88
2023/03/23 07:02:42;;;;;;;7.85;2.47;;;;;;;13.64;71.65;97440.28;5015318;28;20519;-89
2023/03/23 07:05:11;;;;;;;2.95;2.63;;;;;;;13.60;74.15;97433.06;5030720;28;20030;-90
2023/03/23 07:07:39;;;;;;;3.85;2.70;;;;;;;13.76;74.46;97457.88;5031578;28;20034;-90
2023/03/23 07:10:10;;;;;;;5.97;2.80;;;;;;;13.77;72.75;97449.72;5020759;28;20030;-87
2023/03/23 07:12:35;;;;;;;3.95;2.42;;;;;;;13.74;73.75;97459.97;5007828;28;20042;-88
2023/03/23 07:15:05;;;;;;;4.25;2.50;;;;;;;13.59;73.70;97437.53;4997840;28;20029;-88
2023/03/23 07:17:31;;;;;;;5.35;2.78;;;;;;;13.54;76.39;97440.06;5029844;28;20045;-89
2023/03/23 07:19:57;;;;;;;3.90;2.60;;;;;;;13.73;77.92;97463.59;5014290;28;20036;-89
2023/03/23 07:22:27;;;;;;;3.63;2.83;;;;;;;13.73;83.08;97448.59;5030556;28;20503;-89
2023/03/23 07:24:53;;;;;;;3.67;2.78;;;;;;;13.77;81.75;97462.13;4998067;28;20112;-90
2023/03/23 07:27:20;;;;;;;3.50;2.70;;;;;;;13.72;85.93;97446.19;4993992;28;20041;-88
2023/03/23 07:29:46;;;;;;;4.80;3.20;;;;;;;13.96;88.72;97468.00;4980550;28;20485;-89
2023/03/23 07:32:14;;;;;;;6.05;3.08;;;;;;;13.82;86.78;97462.22;4998130;28;20133;-88
2023/03/23 07:34:42;;;;;;;5.68;2.95;;;;;;;14.02;84.57;97483.66;5026480;28;20046;-89
2023/03/23 07:37:08;;;;;;;3.85;3.10;;;;;;;14.12;91.51;97473.31;5026782;28;20088;-91
2023/03/23 07:39:35;;;;;;;5.10;3.22;;;;;;;14.11;88.54;97460.38;5013874;28;20034;-90
2023/03/23 07:42:01;;;;;;;4.28;3.55;;;;;;;14.37;88.82;97472.94;5014232;28;20124;-90
2023/03/23 07:44:30;;;;;;;5.60;3.65;;;;;;;14.37;82.95;97458.94;5030273;28;20033;-90
2023/03/23 07:46:57;;;;;;;6.45;3.53;;;;;;;14.56;87.50;97468.25;5029053;28;20076;-89
2023/03/23 07:49:23;;;;;;;5.18;3.67;;;;;;;14.57;85.85;97443.47;5022523;28;20520;-88
2023/03/23 07:51:51;;;;;;;4.18;3.38;;;;;;;14.66;81.85;97468.41;4985749;28;20026;-88
2023/03/23 07:54:16;;;;;;;4.30;2.90;;;;;;;14.58;82.89;97460.91;5010327;28;20741;-89
2023/03/23 07:56:43;;;;;;;6.82;3.42;;;;;;;14.60;84.42;97463.31;5012932;28;20029;-89
2023/03/23 07:59:09;;;;;;;4.25;3.03;;;;;;;14.56;83.93;97449.78;5026807;28;20037;-91
2023/03/23 08:01:36;;;;;;;4.47;3.50;;;;;;;14.53;81.46;97455.56;5029988;28;20033;-89
2023/03/23 08:04:02;;;;;;;4.57;3.30;;;;;;;14.47;82.06;97459.16;5012817;28;20048;-90
2023/03/23 08:06:28;;;;;;;4.45;3.33;;;;;;;14.48;82.52;97478.41;5014384;28;20034;-90
2023/03/23 08:08:54;;;;;;;10.32;3.83;;;;;;;14.45;82.84;97477.00;5029740;28;20056;-89
2023/03/23 08:11:20;;;;;;;4.72;3.40;;;;;;;14.35;81.96;97471.59;5013707;28;20093;-90
2023/03/23 08:13:47;;;;;;;5.50;2.88;;;;;;;14.42;86.89;97503.88;5012693;28;20026;-90
2023/03/23 08:16:15;;;;;;;5.95;3.05;;;;;;;14.29;84.97;97486.53;4996702;28;20036;-90
2023/03/23 08:18:40;;;;;;;4.82;3.15;;;;;;;14.20;86.59;97486.09;5013447;28;20037;-90
2023/03/23 08:21:10;;;;;;;4.43;3.10;;;;;;;14.22;86.50;97495.63;5012982;28;20034;-89
2023/03/23 08:23:37;;;;;;;6.28;3.20;;;;;;;14.15;84.87;97493.94;5012870;28;20042;-89
2023/03/23 08:26:07;;;;;;;5.32;3.28;;;;;;;14.26;84.95;97507.28;5026445;28;20072;-90
2023/03/23 08:28:35;;;;;;;6.28;3.13;;;;;;;14.26;85.89;97505.44;5029106;28;20041;-89
2023/03/23 08:31:10;;;;;;;5.15;3.08;;;;;;;14.30;87.87;97521.63;5012973;28;20540;-89
2023/03/23 08:33:37;;;;;;;5.18;3.20;;;;;;;14.24;86.51;97510.16;5013020;28;20547;-90
2023/03/23 08:36:04;;;;;;;3.15;2.83;;;;;;;14.32;87.78;97490.50;5012961;28;20041;-90
2023/03/23 08:38:32;;;;;;;4.28;3.00;;;;;;;14.50;87.42;97514.06;5025301;28;20040;-90
2023/03/23 08:41:02;;;;;;;3.70;3.22;;;;;;;14.44;85.58;97501.78;5010301;28;20026;-89
2023/03/23 08:43:28;;;;;;;3.75;2.92;;;;;;;14.34;81.91;97480.53;5012330;28;20056;-90
2023/03/23 08:45:54;;;;;;;3.70;3.03;;;;;;;14.50;84.81;97506.16;5029750;28;20113;-91
2023/03/23 08:48:22;;;;;;;5.40;3.55;;;;;;;14.59;83.49;97510.00;5012368;28;20033;-89
2023/03/23 08:50:49;;;;;;;4.45;3.47;;;;;;;14.62;82.75;97504.25;5012496;28;20041;-90
2023/03/23 08:53:16;;;;;;;4.18;3.42;;;;;;;14.69;82.66;97514.63;5028720;28;20030;-90
2023/03/23 08:55:44;;;;;;;4.05;3.30;;;;;;;14.82;82.57;97518.81;4998615;28;20039;-88
2023/03/23 08:58:10;;;;;;;4.50;3.45;;;;;;;14.90;82.60;97526.31;5010385;28;20026;-89
2023/03/23 09:00:46;;;;;;;5.97;3.35;;;;;;;14.89;82.35;97514.16;5012760;28;20508;-90
2023/03/23 09:03:20;;;;;;;7.63;3.20;;;;;;;14.86;78.12;97499.59;5011986;28;20062;-90
2023/03/23 09:05:45;;;;;;;4.13;3.13;;;;;;;14.95;77.74;97518.47;5002838;28;20030;-90
2023/03/23 09:08:13;;;;;;;4.07;3.47;;;;;;;15.04;74.50;97535.50;5015639;28;20038;-90
2023/03/23 09:10:42;;;;;;;4.97;3.33;;;;;;;14.93;77.71;97510.00;5015418;28;20385;-90
2023/03/23 09:13:08;;;;;;;5.28;3.10;;;;;;;14.98;76.14;97513.50;4995670;28;20073;-90
2023/03/23 09:15:35;;;;;;;6.68;4.00;;;;;;;15.07;76.98;97532.41;5008383;28;20084;-89
2023/03/23 09:18:03;;;;;;;8.85;4.57;;;;;;;14.93;75.16;97515.28;5005729;28;20092;-90
2023/03/23 09:20:32;;;;;;;8.50;5.20;;;;;;;14.91;75.70;97522.63;5028036;28;20045;-89
2023/03/23 09:22:58;;;;;;;8.43;5.47;;;;;;;15.06;77.31;97520.25;5007562;28;20609;-89
2023/03/23 09:25:27;;;;;;;9.75;4.93;;;;;;;15.21;77.67;97525.72;4996214;28;20029;-89
2023/03/23 09:27:58;;;;;;;4.55;3.72;;;;;;;15.43;71.99;97532.91;5012093;28;20393;-90
2023/03/23 09:30:30;;;;;;;5.13;3.58;;;;;;;15.62;73.49;97523.66;4994095;28;20950;-88
2023/03/23 09:32:59;;;;;;;3.90;3.45;;;;;;;15.84;73.91;97536.88;5015283;28;20027;-89
2023/03/23 09:35:27;;;;;;;3.33;3.03;;;;;;;15.87;69.40;97522.34;4992617;28;20046;-90
2023/03/23 09:37:54;;;;;;;5.65;3.50;;;;;;;15.90;67.67;97535.91;4994500;28;20153;-90
2023/03/23 09:40:30;;;;;;;3.78;3.10;;;;;;;15.95;69.96;97528.03;5011855;28;20042;-90
2023/03/23 09:43:20;;;;;;;4.18;3.20;;;;;;;15.91;67.63;97521.63;5011654;28;20492;-91
2023/03/23 09:46:05;;;;;;;4.93;2.95;;;;;;;16.11;70.58;97544.84;5011645;28;20030;-90
2023/03/23 09:48:56;;;;;;;5.10;3.47;;;;;;;15.98;68.84;97537.31;5012315;28;20389;-90
2023/03/23 09:51:51;;;;;;;3.80;3.33;;;;;;;15.96;68.38;97520.88;4996309;28;20030;-90
2023/03/23 09:54:30;;;;;;;4.00;3.30;;;;;;;16.07;66.61;97535.78;5032112;28;20064;-90
2023/03/23 09:57:07;;;;;;;5.32;3.20;;;;;;;15.91;69.41;97536.69;5015420;28;20036;-89
2023/03/23 10:00:14;;;;;;;4.25;2.95;;;;;;;16.10;69.07;97545.91;5028476;28;20030;-90
2023/03/23 10:03:16;;;;;;;4.75;3.58;;;;;;;16.06;69.36;97539.50;5032258;28;20030;-89
2023/03/23 10:05:47;;;;;;;4.70;3.20;;;;;;;15.93;69.96;97531.94;5016703;28;20095;-89
2023/03/23 10:08:31;;;;;;;5.95;3.15;;;;;;;15.85;68.09;97551.69;5016090;28;20044;-91
2023/03/23 10:11:06;;;;;;;4.75;3.45;;;;;;;15.67;72.73;97573.94;5001026;28;20036;-90
2023/03/23 10:13:40;;;;;;;4.07;3.13;;;;;;;15.58;74.13;97575.38;5015645;28;20034;-89
2023/03/23 10:16:15;;;;;;;4.80;3.45;;;;;;;15.42;71.99;97581.50;5014570;28;20508;-91
2023/03/23 10:19:00;;;;;;;4.05;3.03;;;;;;;15.20;70.46;97584.09;5016202;28;20519;-89
2023/03/23 10:21:30;;;;;;;6.93;3.47;;;;;;;15.00;71.86;97574.03;5009530;28;20077;-91
2023/03/23 10:24:10;;;;;;;4.05;3.35;;;;;;;14.93;72.53;97583.91;5026234;28;20030;-90
2023/03/23 10:26:47;;;;;;;6.15;3.50;;;;;;;14.94;73.49;97611.94;5015741;28;20034;-90
2023/03/23 10:29:43;;;;;;;4.88;2.78;;;;;;;14.76;73.85;97583.94;5015940;28;20040;-90
2023/03/23 10:32:19;;;;;;;5.25;3.05;;;;;;;14.78;75.73;97596.88;5027301;28;20053;-91
2023/03/23 10:34:59;;;;;;;4.93;2.75;;;;;;;14.83;75.69;97599.63;5015584;28;20050;-90
2023/03/23 10:37:36;;;;;;;3.40;2.80;;;;;;;14.65;75.39;97585.59;5019577;28;20030;-91
2023/03/23 10:40:16;;;;;;;3.20;2.72;;;;;;;14.84;75.59;97622.31;5034294;28;20025;-91
2023/03/23 10:42:46;;;;;;;3.28;2.97;;;;;;;14.81;75.35;97599.03;5017114;28;20112;-91
2023/03/23 10:45:32;;;;;;;3.22;2.60;;;;;;;14.86;75.31;97610.47;5007357;28;20022;-91
2023/03/23 10:48:24;;;;;;;3.67;2.50;;;;;;;14.95;75.16;97621.47;5016637;28;20038;-90
2023/03/23 10:51:01;;;;;;;3.22;2.70;;;;;;;14.82;76.43;97600.66;5033671;28;20489;-92
2023/03/23 10:53:47;;;;;;;3.95;2.50;;;;;;;14.65;76.68;97634.94;5016320;28;20164;-92
2023/03/23 10:56:37;;;;;;;2.92;2.17;;;;;;;14.61;78.45;97623.25;5016716;28;20026;-91
2023/03/23 10:59:22;;;;;;;1.90;1.80;;;;;;;14.32;79.76;97598.66;5014791;28;20033;-91
2023/03/23 11:01:55;;;;;;;3.38;2.05;;;;;;;14.34;80.49;97613.25;5015568;28;20049;-93
2023/03/23 11:04:23;;;;;;;3.28;2.17;;;;;;;14.32;81.59;97588.13;5017194;28;20416;-92
2023/03/23 11:06:56;;;;;;;1.95;1.73;;;;;;;14.39;81.34;97625.69;5014730;28;20035;-90
2023/03/23 11:09:58;;;;;;;3.00;1.88;;;;;;;14.24;82.45;97597.22;5037573;28;20076;-91
2023/03/23 11:12:34;;;;;;;2.03;1.70;;;;;;;14.18;82.12;97621.88;5016238;28;20559;-92
2023/03/23 11:15:32;;;;;;;1.67;1.58;;;;;;;14.26;82.12;97620.69;5016176;28;20037;-91
2023/03/23 11:18:15;;;;;;;;;;;;;;;;;;;;;
2023/03/23 11:20:57;;;;;;;1.67;1.58;;;;;;;14.31;82.59;97610.25;5015318;28;20034;-92
2023/03/23 11:23:51;;;;;;;2.22;1.70;;;;;;;14.32;83.47;97610.00;5017563;28;20409;-91
2023/03/23 11:26:39;;;;;;;4.88;1.77;;;;;;;14.35;83.52;97608.75;5028563;28;20030;-91
2023/03/23 11:29:28;;;;;;;2.25;1.60;;;;;;;14.33;84.41;97611.59;4996552;28;20436;-91
2023/03/23 11:32:32;;;;;;;2.50;1.80;;;;;;;14.20;83.98;97598.69;5007413;28;20030;-90
2023/03/23 11:35:15;;;;;;;;;;;;;;;;;;;;;
2023/03/23 11:38:04;;;;;;;;;;;;;;;;;;;;;
2023/03/23 11:40:52;;;;;;;2.00;1.90;;;;;;;14.04;86.96;97624.00;5012822;28;20129;-92
2023/03/23 11:43:28;;;;;;;2.80;1.98;;;;;;;14.16;87.42;97631.88;4996942;28;20034;-94
2023/03/23 11:46:15;;;;;;;3.17;1.90;;;;;;;14.35;87.50;97649.13;5014459;28;20040;-92
2023/03/23 11:52:36;;;;;;;2.28;2.08;;;;;;;14.28;89.10;97623.94;5019080;28;20481;-93
2023/03/23 11:55:55;;;;;;;2.08;1.80;;;;;;;14.32;89.37;97598.66;5007132;28;20034;-92
2023/03/23 11:59:12;;;;;;;;;;;;;;;;;;;;;
2023/03/23 12:02:20;;;;;;;2.13;1.90;;;;;;;14.64;87.27;97604.31;5004800;28;20030;-92
2023/03/23 12:05:21;;;;;;;2.72;2.20;;;;;;;14.62;87.54;97623.00;5014997;28;20073;-92
2023/03/23 12:08:16;;;;;;;2.80;2.10;;;;;;;14.53;87.58;97607.81;5019600;28;20037;-91
2023/03/23 12:11:28;;;;;;;2.92;1.85;;;;;;;14.81;88.58;97633.34;5015117;28;20029;-91